ミラノ/マルペンサ の空港の天気 - METARとTAF

ミラノ・マルペンサ国際空港 ( LIMC / MXP ) - イタリア ミラノ
飛行場実況気象(Metar)
観測時間10/24 03:50 CEST (10/24 01:50 UTC)
風向・風速北 3m/s
視程5000m
天気現象もや
全天の4割程度の雲 雲底高度 1830m
気温8℃
湿度100%
気圧1028hPa
METARLIMC 240150Z 01006KT 5000 BR SCT060 08/08 Q1028 NOSIG
過去の天気等 Google飛行場航空写真 Wunderground天気予報

過去48時間のMETAR

飛行場予報(TAF)
発表時間: 10/24 01:00 CEST (10/23 23:00 UTC)
予報対象時間: 24日2時 CEST ~ 25日8時 CEST
風向・風速不定 3m/s
視程3000m
天気現象もや
全天の8割程度の雲 雲底高度 300m
24日2時 CEST ~ 24日9時 CEST に一時的に
視程800m
天気現象散在した霧
全天の8割程度の雲 雲底高度 90m
24日10時 CEST ~ 24日12時 CEST に徐々に
視程8000m
全天の4割程度の雲 雲底高度 760m
TAF LIMC 232300Z 2400/2506 VRB05KT 3000 BR BKN010
TEMPO 2400/2407 0800 BCFG BKN003
BECMG 2408/2410 8000 SCT025